createdAt,value
2022-09-12T00:01:34.558Z,16.00
2022-09-12T00:04:02.789Z,16.10
2022-09-12T00:06:32.058Z,16.00
2022-09-12T00:09:00.916Z,16.00
2022-09-12T00:11:30.112Z,16.10
2022-09-12T00:13:59.193Z,16.10
2022-09-12T00:16:28.232Z,15.90
2022-09-12T00:18:56.207Z,15.90
2022-09-12T00:21:24.502Z,15.90
2022-09-12T00:23:52.716Z,15.90
2022-09-12T00:26:21.052Z,15.90
2022-09-12T00:28:50.262Z,15.90
2022-09-12T00:31:19.657Z,15.90
2022-09-12T00:33:47.683Z,15.80
2022-09-12T00:36:16.361Z,15.80
2022-09-12T00:38:44.339Z,15.80
2022-09-12T00:41:16.315Z,15.70
2022-09-12T00:43:45.091Z,15.60
2022-09-12T00:46:17.779Z,15.60
2022-09-12T00:48:47.666Z,15.70
2022-09-12T00:51:15.855Z,15.70
2022-09-12T00:53:44.521Z,15.60
2022-09-12T00:56:14.687Z,15.60
2022-09-12T00:58:44.986Z,15.60
2022-09-12T01:01:12.980Z,15.60
2022-09-12T01:03:42.265Z,15.50
2022-09-12T01:06:14.835Z,15.40
2022-09-12T01:08:44.280Z,15.30
2022-09-12T01:11:13.226Z,15.30
2022-09-12T01:13:41.239Z,15.30
2022-09-12T01:16:09.108Z,15.30
2022-09-12T01:18:45.443Z,15.30
2022-09-12T01:21:19.699Z,15.20
2022-09-12T01:24:02.415Z,15.30
2022-09-12T01:26:57.412Z,15.30
2022-09-12T01:29:38.013Z,15.20
2022-09-12T01:32:11.592Z,15.30
2022-09-12T01:34:45.496Z,15.30
2022-09-12T01:37:16.072Z,15.30
2022-09-12T01:39:47.442Z,15.30
2022-09-12T01:42:18.150Z,15.30
2022-09-12T01:44:48.991Z,15.20
2022-09-12T01:47:20.335Z,15.10
2022-09-12T01:49:52.059Z,15.20
2022-09-12T01:52:22.697Z,15.10
2022-09-12T01:54:52.419Z,15.00
2022-09-12T01:57:24.235Z,15.00
2022-09-12T01:59:55.325Z,15.10
2022-09-12T02:02:27.207Z,15.10
2022-09-12T02:04:59.383Z,15.00
2022-09-12T02:07:28.676Z,14.90
2022-09-12T02:10:00.514Z,14.90
2022-09-12T02:12:30.844Z,14.80
2022-09-12T02:15:02.346Z,14.90
2022-09-12T02:17:32.898Z,14.90
2022-09-12T02:20:03.949Z,14.80
2022-09-12T02:22:32.743Z,14.90
2022-09-12T02:25:01.693Z,14.80
2022-09-12T02:27:31.636Z,14.80
2022-09-12T02:29:59.589Z,14.70
2022-09-12T02:32:31.062Z,14.70
2022-09-12T02:35:02.533Z,14.70
2022-09-12T02:37:34.965Z,14.70
2022-09-12T02:40:03.295Z,14.70
2022-09-12T02:42:31.167Z,14.70
2022-09-12T02:44:59.198Z,14.70
2022-09-12T02:47:29.395Z,14.70
2022-09-12T02:49:57.839Z,14.70
2022-09-12T02:52:27.807Z,14.70
2022-09-12T02:54:56.231Z,14.70
2022-09-12T02:57:23.992Z,14.60
2022-09-12T02:59:52.683Z,14.60
2022-09-12T03:02:29.288Z,14.60
2022-09-12T03:05:03.436Z,14.60
2022-09-12T03:07:42.487Z,14.60
2022-09-12T03:10:15.564Z,14.50
2022-09-12T03:12:48.085Z,14.50
2022-09-12T03:15:29.379Z,14.50
2022-09-12T03:18:06.913Z,14.50
2022-09-12T03:20:42.790Z,14.50
2022-09-12T03:23:18.134Z,14.40
2022-09-12T03:25:49.508Z,14.20
2022-09-12T03:28:18.468Z,14.30
2022-09-12T03:30:47.021Z,14.30
2022-09-12T03:33:15.651Z,14.30
2022-09-12T03:35:44.003Z,14.30
2022-09-12T03:38:13.208Z,14.30
2022-09-12T03:40:41.361Z,14.30
2022-09-12T03:43:09.849Z,14.30
2022-09-12T03:45:38.443Z,14.30
2022-09-12T03:48:06.889Z,14.20
2022-09-12T03:50:34.933Z,14.20
2022-09-12T03:53:02.799Z,14.20
2022-09-12T03:55:32.090Z,14.20
2022-09-12T03:57:59.917Z,14.10
2022-09-12T04:00:27.697Z,14.10
2022-09-12T04:02:56.889Z,14.10
2022-09-12T04:05:25.077Z,14.10
2022-09-12T04:07:52.954Z,14.20
2022-09-12T04:10:21.007Z,14.20
2022-09-12T04:12:50.171Z,14.10
2022-09-12T04:15:18.087Z,14.10
2022-09-12T04:17:45.996Z,14.20
2022-09-12T04:20:13.815Z,14.20
2022-09-12T04:22:41.647Z,14.20
2022-09-12T04:25:10.442Z,14.10
2022-09-12T04:27:38.461Z,14.20
2022-09-12T04:30:08.943Z,14.20
2022-09-12T04:32:36.751Z,14.20
2022-09-12T04:35:05.037Z,14.20
2022-09-12T04:37:32.851Z,14.10
2022-09-12T04:40:00.712Z,14.20
2022-09-12T04:42:28.573Z,14.20
2022-09-12T04:44:56.448Z,14.10
2022-09-12T04:47:25.675Z,14.00
2022-09-12T04:49:54.007Z,13.80
2022-09-12T04:52:21.779Z,13.90
2022-09-12T04:54:49.601Z,13.90
2022-09-12T04:57:17.456Z,14.00
2022-09-12T04:59:45.303Z,14.00
2022-09-12T05:02:13.122Z,14.10
2022-09-12T05:04:42.248Z,14.10
2022-09-12T05:07:10.070Z,14.10
2022-09-12T05:09:37.889Z,13.90
2022-09-12T05:12:06.063Z,13.70
2022-09-12T05:14:34.324Z,13.70
2022-09-12T05:17:02.516Z,13.80
2022-09-12T05:19:31.202Z,13.90
2022-09-12T05:22:00.545Z,13.90
2022-09-12T05:24:28.838Z,14.00
2022-09-12T05:26:56.658Z,14.00
2022-09-12T05:29:25.214Z,14.00
2022-09-12T05:31:53.163Z,14.00
2022-09-12T05:34:21.433Z,13.90
2022-09-12T05:36:49.560Z,13.90
2022-09-12T05:39:18.763Z,13.90
2022-09-12T05:41:47.335Z,14.00
2022-09-12T05:44:15.741Z,13.90
2022-09-12T05:46:44.173Z,13.90
2022-09-12T05:49:13.047Z,13.90
2022-09-12T05:51:41.844Z,13.90
2022-09-12T05:54:10.535Z,13.90
2022-09-12T05:56:40.368Z,14.00
2022-09-12T05:59:08.810Z,14.00
2022-09-12T06:01:36.821Z,14.00
2022-09-12T06:04:05.598Z,14.00
2022-09-12T06:06:34.056Z,14.00
2022-09-12T06:09:02.525Z,13.90
2022-09-12T06:11:31.404Z,14.00
2022-09-12T06:14:01.091Z,14.00
2022-09-12T06:16:29.679Z,14.00
2022-09-12T06:18:58.737Z,14.00
2022-09-12T06:21:27.043Z,14.10
2022-09-12T06:23:55.304Z,14.10
2022-09-12T06:26:25.645Z,14.20
2022-09-12T06:28:54.194Z,14.20
2022-09-12T06:31:25.160Z,14.30
2022-09-12T06:33:53.551Z,14.40
2022-09-12T06:36:22.517Z,14.50
2022-09-12T06:38:54.507Z,14.60
2022-09-12T06:41:22.407Z,14.80
2022-09-12T06:43:50.242Z,14.90
2022-09-12T06:46:18.996Z,15.10
2022-09-12T06:48:48.365Z,15.40
2022-09-12T06:51:16.964Z,15.70
2022-09-12T06:53:45.422Z,15.90
2022-09-12T06:56:13.918Z,16.20
2022-09-12T06:58:42.706Z,16.40
2022-09-12T07:01:12.126Z,16.70
2022-09-12T07:03:40.685Z,17.00
2022-09-12T07:06:11.002Z,17.20
2022-09-12T07:08:40.251Z,17.50
2022-09-12T07:11:12.527Z,17.70
2022-09-12T07:13:40.684Z,17.90
2022-09-12T07:16:08.882Z,18.10
2022-09-12T07:18:38.088Z,18.30
2022-09-12T07:21:07.963Z,18.40
2022-09-12T07:23:37.281Z,18.50
2022-09-12T07:26:05.517Z,18.60
2022-09-12T07:28:34.670Z,18.80
2022-09-12T07:31:07.175Z,19.00
2022-09-12T07:33:35.219Z,19.20
2022-09-12T07:36:03.845Z,19.50
2022-09-12T07:38:31.767Z,19.70
2022-09-12T07:41:01.802Z,19.90
2022-09-12T07:43:29.684Z,20.10
2022-09-12T07:45:57.743Z,20.40
2022-09-12T07:48:25.637Z,20.70
2022-09-12T07:50:58.994Z,21.00
2022-09-12T07:53:27.086Z,21.30
2022-09-12T07:55:55.695Z,21.50
2022-09-12T07:58:25.116Z,21.80
2022-09-12T08:09:27.184Z,21.80
2022-09-12T08:11:54.998Z,21.90
2022-09-12T08:14:24.199Z,22.20
2022-09-12T08:16:52.010Z,22.30
2022-09-12T08:19:19.873Z,22.30
2022-09-12T08:21:47.673Z,22.20
2022-09-12T08:24:15.801Z,22.60
2022-09-12T08:26:44.074Z,22.60
2022-09-12T08:29:12.659Z,22.70
2022-09-12T08:31:42.539Z,23.20
2022-09-12T08:34:10.504Z,23.10
2022-09-12T08:36:38.378Z,23.50
2022-09-12T08:39:07.066Z,23.80
2022-09-12T08:41:37.002Z,24.30
2022-09-12T08:44:19.804Z,24.60
2022-09-12T08:46:56.740Z,24.50
2022-09-12T08:49:27.949Z,24.50
2022-09-12T08:51:56.758Z,24.60
2022-09-12T08:54:26.164Z,25.20
2022-09-12T08:56:57.875Z,25.10
2022-09-12T08:59:26.103Z,25.30
2022-09-12T09:01:58.694Z,25.80
2022-09-12T09:04:37.425Z,25.90
2022-09-12T09:07:16.947Z,26.30
2022-09-12T09:09:50.285Z,26.70
2022-09-12T09:12:23.577Z,26.20
2022-09-12T09:14:59.197Z,26.70
2022-09-12T09:17:30.584Z,26.40
2022-09-12T09:20:03.049Z,27.00
2022-09-12T09:22:37.206Z,27.00
2022-09-12T09:25:07.488Z,27.60
2022-09-12T09:27:41.277Z,27.70
2022-09-12T09:30:14.342Z,27.80
2022-09-12T09:32:43.723Z,28.00
2022-09-12T09:35:17.133Z,28.10
2022-09-12T09:37:45.829Z,27.80
2022-09-12T09:40:18.530Z,28.10
2022-09-12T09:42:52.029Z,28.10
2022-09-12T09:45:21.842Z,27.80
2022-09-12T09:47:52.413Z,27.80
2022-09-12T09:50:20.309Z,29.10
2022-09-12T09:52:48.445Z,29.20
2022-09-12T09:55:17.687Z,29.90
2022-09-12T09:57:46.646Z,29.30
2022-09-12T10:00:25.859Z,28.20
2022-09-12T10:03:06.274Z,28.60
2022-09-12T10:05:38.316Z,29.70
2022-09-12T10:08:08.235Z,30.00
2022-09-12T10:10:36.048Z,28.90
2022-09-12T10:13:10.925Z,29.10
2022-09-12T10:15:39.158Z,29.70
2022-09-12T10:18:08.394Z,30.10
2022-09-12T10:20:37.268Z,30.00
2022-09-12T10:23:09.447Z,28.70
2022-09-12T10:25:37.313Z,29.00
2022-09-12T10:28:05.177Z,29.90
2022-09-12T10:30:33.070Z,31.00
2022-09-12T10:33:08.682Z,31.40
2022-09-12T10:35:46.032Z,31.50
2022-09-12T10:38:16.117Z,31.80
2022-09-12T10:40:45.191Z,32.10
2022-09-12T10:43:18.024Z,32.40
2022-09-12T10:45:45.916Z,32.90
2022-09-12T10:48:25.149Z,32.60
2022-09-12T10:50:54.335Z,32.90
2022-09-12T10:53:22.901Z,32.90
2022-09-12T10:56:00.194Z,33.10
2022-09-12T10:58:34.743Z,33.50
2022-09-12T11:01:06.968Z,31.50
2022-09-12T11:03:41.071Z,32.30
2022-09-12T11:06:12.403Z,32.50
2022-09-12T11:08:50.623Z,32.60
2022-09-12T11:11:26.891Z,32.80
2022-09-12T11:14:00.830Z,33.50
2022-09-12T11:16:34.947Z,34.10
2022-09-12T11:19:13.519Z,33.90
2022-09-12T11:21:48.968Z,33.50
2022-09-12T11:24:23.274Z,32.90
2022-09-12T11:27:01.093Z,33.60
2022-09-12T11:29:36.015Z,34.30
2022-09-12T11:32:37.029Z,34.00
2022-09-12T11:35:08.666Z,32.90
2022-09-12T11:37:44.703Z,33.50
2022-09-12T11:40:20.164Z,32.10
2022-09-12T11:42:50.246Z,31.90
2022-09-12T11:45:20.410Z,33.30
2022-09-12T11:47:51.782Z,33.70
2022-09-12T11:50:23.364Z,34.20
2022-09-12T11:52:53.243Z,33.20
2022-09-12T11:55:23.559Z,34.40
2022-09-12T11:57:53.884Z,33.50
2022-09-12T12:00:23.114Z,33.00
2022-09-12T12:02:56.119Z,34.00
2022-09-12T12:05:26.896Z,34.80
2022-09-12T12:07:57.170Z,34.90
2022-09-12T12:10:27.211Z,35.10
2022-09-12T12:12:56.072Z,35.60
2022-09-12T12:15:25.103Z,35.50
2022-09-12T12:18:07.154Z,34.60
2022-09-12T12:20:35.591Z,34.50
2022-09-12T12:23:05.196Z,33.80
2022-09-12T12:25:52.847Z,34.00
2022-09-12T12:28:40.070Z,34.20
2022-09-12T12:31:07.956Z,35.20
2022-09-12T12:34:09.094Z,34.50
2022-09-12T12:36:38.505Z,34.90
2022-09-12T12:39:24.104Z,35.20
2022-09-12T12:41:53.273Z,35.20
2022-09-12T12:44:39.501Z,35.50
2022-09-12T12:47:16.701Z,35.70
2022-09-12T12:49:51.915Z,35.60
2022-09-12T12:52:20.464Z,36.10
2022-09-12T12:54:53.658Z,36.40
2022-09-12T12:57:27.394Z,36.10
2022-09-12T12:59:57.208Z,36.00
2022-09-12T13:02:28.444Z,36.00
2022-09-12T13:04:56.732Z,35.80
2022-09-12T13:07:30.521Z,36.00
2022-09-12T13:09:58.999Z,36.20
2022-09-12T13:12:30.148Z,36.10
2022-09-12T13:14:59.383Z,35.80
2022-09-12T13:17:29.343Z,35.80
2022-09-12T13:20:26.586Z,36.00
2022-09-12T13:22:54.059Z,36.30
2022-09-12T13:25:23.808Z,35.40
2022-09-12T13:27:59.605Z,35.70
2022-09-12T13:30:28.492Z,35.70
2022-09-12T13:32:58.549Z,35.70
2022-09-12T13:35:34.753Z,35.70
2022-09-12T13:38:06.699Z,34.40
2022-09-12T13:40:38.155Z,34.40
2022-09-12T13:43:14.935Z,33.80
2022-09-12T13:45:43.410Z,33.50
2022-09-12T13:48:14.173Z,32.40
2022-09-12T13:50:43.716Z,33.60
2022-09-12T13:53:15.299Z,34.40
2022-09-12T13:55:44.272Z,34.90
2022-09-12T13:58:20.282Z,34.40
2022-09-12T14:00:48.245Z,34.10
2022-09-12T14:03:44.215Z,34.40
2022-09-12T14:06:12.617Z,34.40
2022-09-12T14:08:41.286Z,34.70
2022-09-12T14:11:09.741Z,34.70
2022-09-12T14:13:39.810Z,34.50
2022-09-12T14:16:09.903Z,32.30
2022-09-12T14:18:38.489Z,32.40
2022-09-12T14:21:10.546Z,32.90
2022-09-12T14:23:41.076Z,33.40
2022-09-12T14:26:11.495Z,32.80
2022-09-12T14:28:42.174Z,33.60
2022-09-12T14:31:23.711Z,33.60
2022-09-12T14:33:52.733Z,32.90
2022-09-12T14:36:23.039Z,32.50
2022-09-12T14:38:52.110Z,33.00
2022-09-12T14:41:24.259Z,33.10
2022-09-12T14:43:55.589Z,32.80
2022-09-12T14:46:26.290Z,33.10
2022-09-12T14:48:54.884Z,33.00
2022-09-12T14:51:24.431Z,33.00
2022-09-12T14:53:52.310Z,33.40
2022-09-12T14:56:22.156Z,33.10
2022-09-12T14:58:50.361Z,33.10
2022-09-12T15:01:26.897Z,32.90
2022-09-12T15:03:56.545Z,33.40
2022-09-12T15:06:26.218Z,33.00
2022-09-12T15:08:54.438Z,33.10
2022-09-12T15:11:22.325Z,33.10
2022-09-12T15:13:50.363Z,33.10
2022-09-12T15:16:18.296Z,33.20
2022-09-12T15:18:47.512Z,33.00
2022-09-12T15:21:18.096Z,32.70
2022-09-12T15:23:46.968Z,32.10
2022-09-12T15:26:16.363Z,32.30
2022-09-12T15:28:44.303Z,32.20
2022-09-12T15:31:14.546Z,32.40
2022-09-12T15:33:42.544Z,32.50
2022-09-12T15:36:14.752Z,32.30
2022-09-12T15:38:42.583Z,31.80
2022-09-12T15:41:12.054Z,31.90
2022-09-12T15:43:40.449Z,32.10
2022-09-12T15:46:11.006Z,32.20
2022-09-12T15:48:38.843Z,32.40
2022-09-12T15:51:06.838Z,32.10
2022-09-12T15:53:36.064Z,31.80
2022-09-12T15:56:04.300Z,31.90
2022-09-12T15:58:32.173Z,31.80
2022-09-12T16:01:00.144Z,31.70
2022-09-12T16:03:29.456Z,31.50
2022-09-12T16:05:58.084Z,31.50
2022-09-12T16:08:26.310Z,31.20
2022-09-12T16:10:56.556Z,30.50
2022-09-12T16:13:24.718Z,30.50
2022-09-12T16:15:52.747Z,30.50
2022-09-12T16:18:20.708Z,30.30
2022-09-12T16:20:48.515Z,30.20
2022-09-12T16:23:16.338Z,29.80
2022-09-12T16:25:44.332Z,29.40
2022-09-12T16:28:13.654Z,28.80
2022-09-12T16:30:41.798Z,28.90
2022-09-12T16:33:09.595Z,29.20
2022-09-12T16:35:37.385Z,29.40
2022-09-12T16:38:05.220Z,29.40
2022-09-12T16:40:33.036Z,29.40
2022-09-12T16:43:00.873Z,29.30
2022-09-12T16:45:30.009Z,29.10
2022-09-12T16:47:57.827Z,29.00
2022-09-12T16:50:25.621Z,28.90
2022-09-12T16:52:53.443Z,28.80
2022-09-12T16:55:22.324Z,28.80
2022-09-12T16:57:50.621Z,28.80
2022-09-12T17:00:18.644Z,28.80
2022-09-12T17:02:48.359Z,28.70
2022-09-12T17:05:16.911Z,28.60
2022-09-12T17:07:44.719Z,28.50
2022-09-12T17:10:12.558Z,28.60
2022-09-12T17:12:40.372Z,28.50
2022-09-12T17:15:08.509Z,28.50
2022-09-12T17:17:36.342Z,28.60
2022-09-12T17:20:05.903Z,28.40
2022-09-12T17:22:34.096Z,28.40
2022-09-12T17:25:01.913Z,28.20
2022-09-12T17:27:29.783Z,28.30
2022-09-12T17:29:57.587Z,28.10
2022-09-12T17:32:25.399Z,28.00
2022-09-12T17:34:53.268Z,27.90
2022-09-12T17:37:22.820Z,27.80
2022-09-12T17:39:50.678Z,27.60
2022-09-12T17:42:18.781Z,27.60
2022-09-12T17:44:46.637Z,27.40
2022-09-12T17:47:14.542Z,27.20
2022-09-12T17:49:42.630Z,27.00
2022-09-12T17:52:10.532Z,27.00
2022-09-12T17:54:39.815Z,27.00
2022-09-12T17:57:07.670Z,26.80
2022-09-12T17:59:35.537Z,26.80
2022-09-12T18:02:14.250Z,26.60
2022-09-12T18:04:42.340Z,26.50
2022-09-12T18:07:10.651Z,26.30
2022-09-12T18:09:40.761Z,26.20
2022-09-12T18:12:08.816Z,26.10
2022-09-12T18:14:37.655Z,26.10
2022-09-12T18:17:07.026Z,25.70
2022-09-12T18:19:35.361Z,25.80
2022-09-12T18:22:03.397Z,25.50
2022-09-12T18:24:33.169Z,25.50
2022-09-12T18:27:03.970Z,25.40
2022-09-12T18:29:31.801Z,25.00
2022-09-12T18:31:59.831Z,25.20
2022-09-12T18:36:57.029Z,24.80
2022-09-12T18:41:56.208Z,24.40
2022-09-12T18:44:25.417Z,24.50
2022-09-12T18:46:53.365Z,24.40
2022-09-12T18:49:21.328Z,24.30
2022-09-12T18:51:49.158Z,24.10
2022-09-12T18:54:17.898Z,23.90
2022-09-12T18:56:45.879Z,23.80
2022-09-12T18:59:14.878Z,23.70
2022-09-12T19:01:44.506Z,23.60
2022-09-12T19:04:12.902Z,23.50
2022-09-12T19:06:41.614Z,23.50
2022-09-12T19:09:10.041Z,23.50
2022-09-12T19:11:38.858Z,23.40
2022-09-12T19:14:07.476Z,23.20
2022-09-12T19:16:35.977Z,23.10
2022-09-12T19:19:06.140Z,23.00
2022-09-12T19:21:34.347Z,22.90
2022-09-12T19:24:03.567Z,22.90
2022-09-12T19:26:31.935Z,22.90
2022-09-12T19:29:02.444Z,22.90
2022-09-12T19:31:30.927Z,23.00
2022-09-12T19:34:00.830Z,22.60
2022-09-12T19:36:47.086Z,22.50
2022-09-12T19:39:16.164Z,22.40
2022-09-12T19:41:44.131Z,22.30
2022-09-12T19:44:12.660Z,22.10
2022-09-12T19:46:40.618Z,22.10
2022-09-12T19:49:08.939Z,22.10
2022-09-12T19:51:38.119Z,22.10
2022-09-12T19:54:06.113Z,22.10
2022-09-12T19:56:33.928Z,22.00
2022-09-12T19:59:01.750Z,22.00
2022-09-12T20:01:29.660Z,21.90
2022-09-12T20:03:57.856Z,21.90
2022-09-12T20:06:26.470Z,21.80
2022-09-12T20:08:55.694Z,21.80
2022-09-12T20:11:24.131Z,21.80
2022-09-12T20:13:52.211Z,21.70
2022-09-12T20:16:22.470Z,21.60
2022-09-12T20:18:53.985Z,21.50
2022-09-12T20:21:24.907Z,21.30
2022-09-12T20:23:52.826Z,21.30
2022-09-12T20:26:24.912Z,21.40
2022-09-12T20:28:52.784Z,21.40
2022-09-12T20:31:20.684Z,21.40
2022-09-12T20:33:51.798Z,21.40
2022-09-12T20:36:20.843Z,21.40
2022-09-12T20:38:49.930Z,21.30
2022-09-12T20:41:18.073Z,21.20
2022-09-12T20:43:49.958Z,21.10
2022-09-12T20:46:21.641Z,21.10
2022-09-12T20:48:50.369Z,21.10
2022-09-12T20:51:18.229Z,21.10
2022-09-12T20:53:46.059Z,21.10
2022-09-12T20:56:15.024Z,21.00
2022-09-12T20:58:44.295Z,21.00
2022-09-12T21:01:16.005Z,20.90
2022-09-12T21:03:44.591Z,20.80
2022-09-12T21:06:13.499Z,20.70
2022-09-12T21:08:41.553Z,20.70
2022-09-12T21:11:09.385Z,20.70
2022-09-12T21:13:37.331Z,20.60
2022-09-12T21:16:06.463Z,20.50
2022-09-12T21:18:36.225Z,20.60
2022-09-12T21:21:04.606Z,20.60
2022-09-12T21:23:32.714Z,20.60
2022-09-12T21:26:00.631Z,20.50
2022-09-12T21:28:28.526Z,20.30
2022-09-12T21:30:56.549Z,20.30
2022-09-12T21:33:24.955Z,20.30
2022-09-12T21:35:54.109Z,20.30
2022-09-12T21:38:21.935Z,20.20
2022-09-12T21:40:49.768Z,20.20
2022-09-12T21:43:17.603Z,20.10
2022-09-12T21:45:45.438Z,20.00
2022-09-12T21:48:13.443Z,19.90
2022-09-12T21:50:41.251Z,19.80
2022-09-12T21:53:10.399Z,19.90
2022-09-12T21:55:38.207Z,19.90
2022-09-12T21:58:06.053Z,19.90
2022-09-12T22:00:34.015Z,19.70
2022-09-12T22:03:01.824Z,20.00
2022-09-12T22:05:32.686Z,20.20
2022-09-12T22:08:00.890Z,19.90
2022-09-12T22:10:30.055Z,19.90
2022-09-12T22:12:57.867Z,20.00
2022-09-12T22:15:41.467Z,20.20
2022-09-12T22:18:09.407Z,20.00
2022-09-12T22:20:37.200Z,19.40
2022-09-12T22:23:24.948Z,19.80
2022-09-12T22:25:56.749Z,19.50
2022-09-12T22:28:25.167Z,19.90
2022-09-12T22:30:54.352Z,20.30
2022-09-12T22:33:22.431Z,20.00
2022-09-12T22:35:50.229Z,20.30
2022-09-12T22:38:18.070Z,20.00
2022-09-12T22:40:45.859Z,19.90
2022-09-12T22:43:15.034Z,20.00
2022-09-12T22:45:42.853Z,19.90
2022-09-12T22:48:10.829Z,19.90
2022-09-12T22:50:38.664Z,19.90
2022-09-12T22:53:06.455Z,19.70
2022-09-12T22:55:34.266Z,19.70
2022-09-12T22:58:03.589Z,19.70
2022-09-12T23:00:32.802Z,19.70
2022-09-12T23:03:01.597Z,19.70
2022-09-12T23:05:29.645Z,19.70
2022-09-12T23:07:57.465Z,19.70
2022-09-12T23:10:26.055Z,19.70
2022-09-12T23:12:53.863Z,19.90
2022-09-12T23:15:21.706Z,19.80
2022-09-12T23:17:50.855Z,19.70
2022-09-12T23:20:18.661Z,19.80
2022-09-12T23:22:46.459Z,19.90
2022-09-12T23:25:14.912Z,19.80
2022-09-12T23:27:42.855Z,19.50
2022-09-12T23:30:11.196Z,19.90
2022-09-12T23:32:39.010Z,19.70
2022-09-12T23:35:08.586Z,19.70
2022-09-12T23:37:36.388Z,19.40
2022-09-12T23:40:04.639Z,19.70
2022-09-12T23:42:32.483Z,19.70
2022-09-12T23:45:00.450Z,19.70
2022-09-12T23:47:28.254Z,19.70
2022-09-12T23:49:56.071Z,19.70
2022-09-12T23:52:25.196Z,19.70
2022-09-12T23:54:53.015Z,19.70
2022-09-12T23:57:20.819Z,19.70
2022-09-12T23:59:48.684Z,19.70
